Time;durP1;ratioP1;P1;durP2;ratioP2;P2;SDS_P1;SDS_P2;PMS_P1;PMS_P2;Temp;Humidity;BMP_temperature;BMP_pressure;BME280_temperature;BME280_humidity;BME280_pressure;Samples;Min_cycle;Max_cycle;Signal;HPM_P1;HPM_P2
2023/11/30 01:57:35;;;;;;;8.27;3.83;;;;;;;0.72;100.00;99331.19;4685457;30;20547;-95
2023/11/30 02:06:13;;;;;;;;;;;;;;;;;;;;;
2023/11/30 02:18:05;;;;;;;4.65;2.83;;;;;;;0.81;100.00;99313.25;4746585;30;20440;-95
2023/11/30 02:21:14;;;;;;;4.78;2.42;;;;;;;0.91;100.00;99316.03;4745514;29;20075;-94
2023/11/30 02:28:15;;;;;;;4.88;2.88;;;;;;;0.98;100.00;99335.47;4768867;30;20028;-94
2023/11/30 02:38:33;;;;;;;4.07;2.40;;;;;;;1.21;100.00;99339.00;4806278;29;20061;-94
2023/11/30 02:41:40;;;;;;;7.57;2.90;;;;;;;1.26;100.00;99330.88;4779899;29;20054;-94
2023/11/30 02:44:33;;;;;;;3.13;2.28;;;;;;;1.32;100.00;99322.59;4784259;29;20063;-93
2023/11/30 02:47:13;;;;;;;7.43;2.97;;;;;;;1.33;100.00;99321.69;4779865;29;20054;-93
2023/11/30 02:49:40;;;;;;;5.60;2.47;;;;;;;1.27;100.00;99322.13;4804670;29;20102;-94
2023/11/30 02:52:21;;;;;;;3.85;2.38;;;;;;;1.32;100.00;99319.19;4824423;29;20102;-94
2023/11/30 02:54:49;;;;;;;5.15;2.60;;;;;;;1.37;100.00;99332.69;4811663;29;20047;-93
2023/11/30 02:57:50;;;;;;;5.68;3.13;;;;;;;1.45;100.00;99337.34;4797308;29;20038;-93
2023/11/30 03:00:46;;;;;;;7.78;3.10;;;;;;;1.47;100.00;99325.03;4839810;29;20074;-94
2023/11/30 03:03:25;;;;;;;;;;;;;;;;;;;;;
2023/11/30 03:06:01;;;;;;;14.55;3.13;;;;;;;1.43;100.00;99323.59;4828720;29;20054;-94
2023/11/30 03:08:30;;;;;;;4.47;2.78;;;;;;;1.48;100.00;99334.53;4828913;29;20038;-94
2023/11/30 03:10:56;;;;;;;6.60;2.90;;;;;;;1.48;100.00;99340.53;4840481;29;20037;-93
2023/11/30 03:13:22;;;;;;;6.43;3.40;;;;;;;1.48;100.00;99335.34;4827904;29;20057;-93
2023/11/30 03:15:48;;;;;;;7.68;2.60;;;;;;;1.48;100.00;99337.94;4829510;29;20049;-92
2023/11/30 03:18:31;;;;;;;3.63;2.10;;;;;;;1.46;100.00;99326.81;4830387;29;20258;-92
2023/11/30 03:21:00;;;;;;;4.95;2.60;;;;;;;1.50;100.00;99321.38;4814084;29;20095;-93
2023/11/30 03:23:35;;;;;;;8.73;3.22;;;;;;;1.47;100.00;99333.69;4815514;29;20102;-94
2023/11/30 03:26:16;;;;;;;7.57;2.95;;;;;;;1.45;100.00;99326.94;4828882;29;20049;-93
2023/11/30 03:28:58;;;;;;;7.30;2.78;;;;;;;1.49;100.00;99344.00;4851472;29;20081;-93
2023/11/30 03:31:24;;;;;;;4.22;1.65;;;;;;;1.38;100.00;99336.97;4840464;29;20505;-92
2023/11/30 03:33:50;;;;;;;4.05;2.10;;;;;;;1.47;100.00;99332.84;4817783;29;20042;-91
2023/11/30 03:40:16;;;;;;;2.78;2.20;;;;;;;1.46;100.00;99350.25;4854107;29;20041;-92
2023/11/30 03:42:47;;;;;;;6.18;2.75;;;;;;;1.50;100.00;99340.44;4826854;29;20053;-93
2023/11/30 03:45:13;;;;;;;5.63;2.65;;;;;;;1.54;100.00;99336.66;4827449;29;20461;-91
2023/11/30 03:47:39;;;;;;;5.65;2.42;;;;;;;1.55;100.00;99333.13;4842257;29;20042;-91
2023/11/30 03:50:05;;;;;;;2.00;1.23;;;;;;;1.54;100.00;99335.84;4815041;29;20482;-92
2023/11/30 03:52:34;;;;;;;3.72;2.22;;;;;;;1.52;100.00;99337.72;4841770;29;20050;-92
2023/11/30 03:55:03;;;;;;;3.33;2.15;;;;;;;1.43;100.00;99321.00;4843512;29;20489;-93
2023/11/30 03:57:28;;;;;;;5.72;1.45;;;;;;;1.42;100.00;99322.75;4828068;29;20146;-91
2023/11/30 03:59:54;;;;;;;5.40;2.33;;;;;;;1.41;100.00;99313.31;4844436;29;20470;-92
2023/11/30 04:02:20;;;;;;;3.15;1.60;;;;;;;1.38;100.00;99302.28;4814582;29;20461;-93
2023/11/30 04:04:46;;;;;;;3.30;2.10;;;;;;;1.31;100.00;99299.28;4855009;29;20490;-93
2023/11/30 04:07:30;;;;;;;5.13;2.55;;;;;;;1.34;100.00;99299.06;4840108;29;20034;-94
2023/11/30 04:09:56;;;;;;;4.30;2.30;;;;;;;1.25;100.00;99300.56;4814116;29;20037;-93
2023/11/30 04:12:22;;;;;;;5.13;2.38;;;;;;;1.23;100.00;99305.91;4852709;29;20101;-94
2023/11/30 04:14:59;;;;;;;2.05;1.42;;;;;;;1.24;100.00;99306.75;4815674;29;20097;-93
2023/11/30 04:17:25;;;;;;;2.90;1.67;;;;;;;1.23;100.00;99302.44;4844390;29;20053;-94
2023/11/30 04:19:51;;;;;;;5.40;1.50;;;;;;;1.21;100.00;99299.97;4829796;29;20045;-93
2023/11/30 04:22:17;;;;;;;4.00;1.85;;;;;;;1.28;100.00;99315.97;4827742;29;20485;-93
2023/11/30 04:24:42;;;;;;;2.83;1.60;;;;;;;1.32;100.00;99316.59;4853147;29;20101;-90
2023/11/30 04:27:27;;;;;;;3.45;2.00;;;;;;;1.33;100.00;99308.66;4845256;29;20033;-93
2023/11/30 04:34:36;;;;;;;3.75;1.55;;;;;;;1.20;100.00;99319.13;4807667;29;20046;-92
2023/11/30 04:37:05;;;;;;;5.47;1.60;;;;;;;1.19;100.00;99320.09;4836582;29;20053;-93
2023/11/30 05:00:56;;;;;;;7.03;1.45;;;;;;;0.98;100.00;99345.88;4735370;30;20581;-93
2023/11/30 05:19:40;;;;;;;3.60;1.10;;;;;;;1.32;100.00;99353.84;4816166;29;20062;-96
2023/11/30 05:22:06;;;;;;;2.53;1.38;;;;;;;1.30;100.00;99366.16;4796301;29;20142;-95
2023/11/30 05:28:41;;;;;;;2.75;1.08;;;;;;;1.32;100.00;99369.47;4843985;29;20060;-93
2023/11/30 05:35:51;;;;;;;1.33;1.08;;;;;;;1.24;100.00;99388.25;4863155;29;20445;-94
2023/11/30 05:48:01;;;;;;;2.63;1.20;;;;;;;1.18;100.00;99373.06;4834304;29;20042;-95
2023/11/30 05:50:57;;;;;;;2.25;1.08;;;;;;;1.18;100.00;99375.69;4807776;29;20049;-96
2023/11/30 06:02:28;;;;;;;3.67;1.10;;;;;;;1.18;100.00;99356.66;4851374;29;20135;-96
2023/11/30 06:05:26;;;;;;;3.38;1.30;;;;;;;1.21;100.00;99359.03;4843320;29;20042;-96
2023/11/30 06:13:21;;;;;;;1.95;0.88;;;;;;;1.26;100.00;99362.09;4786826;30;20084;-95
2023/11/30 06:16:49;;;;;;;3.33;1.25;;;;;;;1.30;100.00;99375.75;4759414;30;20050;-95
2023/11/30 06:19:15;;;;;;;2.28;1.30;;;;;;;1.28;100.00;99368.03;4788213;29;20052;-95
2023/11/30 06:21:44;;;;;;;4.20;1.42;;;;;;;1.38;100.00;99370.81;4829164;29;20045;-95
2023/11/30 06:29:13;;;;;;;2.95;1.48;;;;;;;1.32;100.00;99373.88;4859498;29;20040;-95
2023/11/30 06:31:59;;;;;;;2.53;1.38;;;;;;;1.35;100.00;99384.88;4817865;29;20128;-96
2023/11/30 06:34:58;;;;;;;2.17;1.98;;;;;;;1.35;100.00;99384.88;4833915;29;20637;-94
2023/11/30 06:37:36;;;;;;;6.80;2.65;;;;;;;1.38;100.00;99391.66;4835386;29;20034;-94
2023/11/30 06:45:10;;;;;;;4.53;2.05;;;;;;;1.36;100.00;99390.91;4754986;30;20588;-93
2023/11/30 06:48:26;;;;;;;3.08;1.50;;;;;;;1.36;100.00;99396.13;4716398;30;20525;-96
2023/11/30 07:46:51;;;;;;;4.07;1.52;;;;;;;1.28;100.00;99427.91;4860010;29;20530;-96
2023/11/30 07:49:57;;;;;;;2.22;1.08;;;;;;;1.35;100.00;99436.13;4845237;29;20045;-96
2023/11/30 07:52:23;;;;;;;2.67;1.63;;;;;;;1.32;100.00;99442.38;4811308;29;20045;-94
2023/11/30 08:08:57;;;;;;;5.40;1.83;;;;;;;1.08;100.00;99464.00;4862276;29;20721;-96
2023/11/30 09:03:23;;;;;;;7.45;2.15;;;;;;;0.55;100.00;99518.75;4823745;29;20064;-96
2023/11/30 09:53:21;;;;;;;4.07;1.70;;;;;;;0.83;100.00;99572.38;4828256;29;20138;-96
2023/11/30 10:38:46;;;;;;;3.22;1.00;;;;;;;1.67;100.00;99586.66;4715349;30;20055;-95
2023/11/30 12:37:35;;;;;;;4.68;0.80;;;;;;;3.70;100.00;99565.69;5737624;23;20723;-92
2023/11/30 13:00:51;;;;;;;1.80;0.85;;;;;;;3.01;100.00;99594.44;4822094;29;20067;-96
2023/11/30 13:20:55;;;;;;;6.88;1.42;;;;;;;2.88;100.00;99609.38;4814340;29;20047;-96
2023/11/30 13:41:30;;;;;;;1.33;0.80;;;;;;;2.87;100.00;99632.03;4761795;30;20101;-96
2023/11/30 14:10:48;;;;;;;;;;;;;;;;;;;;;
2023/11/30 14:51:27;;;;;;;;;;;;;;;;;;;;;
2023/11/30 14:55:05;;;;;;;6.07;2.00;;;;;;;3.18;100.00;99621.06;4845465;29;20133;-96
2023/11/30 15:02:59;;;;;;;8.32;2.58;;;;;;;3.04;100.00;99622.94;4811903;29;20134;-96
2023/11/30 15:11:09;;;;;;;2.55;1.70;;;;;;;3.07;100.00;99621.88;4884988;29;20111;-96
2023/11/30 16:11:18;;;;;;;2.03;1.52;;;;;;;2.58;100.00;99656.72;4868410;29;20469;-96
2023/11/30 16:20:10;;;;;;;;;;;;;;;;;;;;;
2023/11/30 16:39:48;;;;;;;3.28;1.90;;;;;;;2.09;100.00;99680.19;4769425;30;20192;-96
2023/11/30 16:50:27;;;;;;;4.43;1.93;;;;;;;1.90;100.00;99690.22;4875335;29;20444;-96
2023/11/30 16:52:53;;;;;;;3.10;1.95;;;;;;;1.88;100.00;99694.72;4837723;29;20040;-95
2023/11/30 16:55:19;;;;;;;2.80;1.92;;;;;;;1.84;100.00;99691.47;4842652;24;20513;-95
2023/11/30 16:57:45;;;;;;;4.68;1.98;;;;;;;1.80;100.00;99696.06;4840977;29;20068;-96
2023/11/30 17:00:11;;;;;;;7.78;2.85;;;;;;;1.79;100.00;99698.78;4853122;29;20061;-95
2023/11/30 17:02:41;;;;;;;6.55;2.58;;;;;;;1.71;100.00;99704.53;4824863;29;20041;-95
2023/11/30 17:05:10;;;;;;;10.25;3.72;;;;;;;1.69;100.00;99709.84;4832561;29;20516;-96
2023/11/30 17:07:41;;;;;;;6.28;3.00;;;;;;;1.71;100.00;99712.34;4864705;29;20049;-96
2023/11/30 17:10:12;;;;;;;5.85;3.50;;;;;;;1.72;100.00;99716.63;4857537;29;20041;-94
2023/11/30 17:12:38;;;;;;;7.60;3.20;;;;;;;1.64;100.00;99721.53;4838114;29;20065;-96
2023/11/30 17:15:07;;;;;;;5.57;2.47;;;;;;;1.65;100.00;99712.75;4839863;29;20161;-94
2023/11/30 17:17:44;;;;;;;;;;;;;;;;;;;;;
2023/11/30 17:20:14;;;;;;;3.72;1.90;;;;;;;1.61;100.00;99718.19;4842252;29;20050;-96
2023/11/30 17:22:41;;;;;;;5.55;1.90;;;;;;;1.58;100.00;99720.16;4827290;29;20030;-95
2023/11/30 17:25:08;;;;;;;4.47;1.95;;;;;;;1.59;100.00;99720.03;4841354;29;20489;-95
2023/11/30 17:27:36;;;;;;;2.92;1.80;;;;;;;1.58;100.00;99726.19;4834637;29;20038;-96
2023/11/30 17:30:07;;;;;;;7.30;2.20;;;;;;;1.57;100.00;99737.56;4842329;29;20043;-95
2023/11/30 17:32:45;;;;;;;4.97;2.85;;;;;;;1.55;100.00;99730.78;4846643;29;20074;-95
2023/11/30 17:35:19;;;;;;;4.97;2.58;;;;;;;1.51;100.00;99727.56;4844238;29;20065;-96
2023/11/30 17:38:01;;;;;;;8.23;2.90;;;;;;;1.46;100.00;99727.03;4842184;29;20056;-95
2023/11/30 17:40:32;;;;;;;5.70;3.13;;;;;;;1.53;100.00;99743.91;4845036;29;20496;-96
2023/11/30 17:43:15;;;;;;;;;;;;;;;;;;;;;
2023/11/30 17:46:02;;;;;;;;;;;;;;;1.46;100.00;99742.66;4856415;29;20045;-95
2023/11/30 17:48:36;;;;;;;6.90;2.78;;;;;;;1.43;100.00;99743.72;4835167;29;19924;-96
2023/11/30 17:51:07;;;;;;;4.97;2.38;;;;;;;1.45;100.00;99746.22;4856716;29;20042;-96
2023/11/30 17:53:36;;;;;;;5.70;2.88;;;;;;;1.40;100.00;99741.28;4841294;29;20053;-96
2023/11/30 17:56:03;;;;;;;5.50;3.10;;;;;;;1.45;100.00;99754.84;4859426;29;20041;-96
2023/11/30 17:58:33;;;;;;;10.90;3.83;;;;;;;1.43;100.00;99756.72;4846058;29;20045;-96
2023/11/30 18:01:02;;;;;;;7.13;3.70;;;;;;;1.40;100.00;99756.09;4862549;29;20041;-96
2023/11/30 18:03:28;;;;;;;7.65;4.28;;;;;;;1.38;100.00;99748.38;4840461;29;20041;-95
2023/11/30 18:05:54;;;;;;;7.28;3.80;;;;;;;1.42;100.00;99762.84;4830279;29;20554;-95
2023/11/30 18:08:20;;;;;;;6.75;4.07;;;;;;;1.40;100.00;99754.31;4827187;29;20037;-96
2023/11/30 18:10:56;;;;;;;10.95;4.43;;;;;;;1.40;100.00;99767.31;4861569;29;20429;-96
2023/11/30 18:13:24;;;;;;;8.00;3.90;;;;;;;1.36;100.00;99758.91;4832001;29;20048;-96
2023/11/30 18:15:52;;;;;;;9.70;4.30;;;;;;;1.40;100.00;99763.91;4842096;29;20454;-96
2023/11/30 18:18:21;;;;;;;5.78;3.75;;;;;;;1.39;100.00;99773.47;4828323;29;20125;-95
2023/11/30 18:20:49;;;;;;;7.15;4.10;;;;;;;1.33;100.00;99766.06;4828925;29;20041;-96
2023/11/30 18:23:15;;;;;;;9.27;4.78;;;;;;;1.36;100.00;99777.13;4868036;29;20083;-96
2023/11/30 18:25:41;;;;;;;8.55;4.95;;;;;;;1.35;100.00;99774.63;4838701;29;20037;-96
2023/11/30 18:28:07;;;;;;;10.77;4.53;;;;;;;1.28;100.00;99763.78;4822872;29;20037;-96
2023/11/30 18:30:34;;;;;;;8.05;4.63;;;;;;;1.29;100.00;99775.84;4851912;29;20049;-96
2023/11/30 18:33:00;;;;;;;14.00;5.75;;;;;;;1.22;100.00;99775.44;4847518;29;20033;-96
2023/11/30 18:35:33;;;;;;;15.40;6.82;;;;;;;1.21;100.00;99773.75;4844356;29;20098;-96
2023/11/30 18:38:04;;;;;;;9.73;5.82;;;;;;;1.18;100.00;99768.75;4828290;29;20039;-96
2023/11/30 18:40:31;;;;;;;12.85;5.57;;;;;;;1.19;100.00;99769.59;4827218;29;20112;-96
2023/11/30 18:43:00;;;;;;;11.70;6.00;;;;;;;1.18;100.00;99781.75;4825444;29;20037;-96
2023/11/30 18:45:29;;;;;;;14.73;6.75;;;;;;;1.15;100.00;99771.56;4849594;29;20042;-96
2023/11/30 18:47:57;;;;;;;13.55;6.60;;;;;;;1.18;100.00;99781.75;4839059;29;20196;-96
2023/11/30 18:50:23;;;;;;;16.25;7.25;;;;;;;1.14;100.00;99779.47;4841946;29;20041;-96
2023/11/30 18:52:54;;;;;;;10.13;6.55;;;;;;;1.15;100.00;99775.94;4829399;29;20074;-96
2023/11/30 18:55:30;;;;;;;12.98;5.82;;;;;;;1.10;100.00;99784.03;4831025;29;20057;-96
2023/11/30 18:57:56;;;;;;;11.65;5.25;;;;;;;1.17;100.00;99790.53;4864947;29;20033;-96
2023/11/30 19:00:22;;;;;;;8.60;4.68;;;;;;;1.17;100.00;99789.66;4841288;29;20048;-96
2023/11/30 19:02:48;;;;;;;6.60;3.90;;;;;;;1.18;100.00;99793.97;4866132;29;20042;-96
2023/11/30 19:05:16;;;;;;;10.00;3.47;;;;;;;1.15;100.00;99791.56;4842199;29;20580;-96
2023/11/30 19:07:42;;;;;;;7.68;4.80;;;;;;;1.14;100.00;99795.06;4859806;29;20037;-96
2023/11/30 19:10:09;;;;;;;8.80;5.25;;;;;;;1.13;100.00;99801.22;4848849;29;20170;-96
2023/11/30 19:12:35;;;;;;;9.13;5.60;;;;;;;1.07;100.00;99795.47;4840547;29;20053;-96
2023/11/30 19:15:01;;;;;;;7.65;5.13;;;;;;;1.12;100.00;99805.59;4859256;29;20408;-96
2023/11/30 19:17:27;;;;;;;10.20;4.63;;;;;;;1.07;100.00;99813.69;4834055;29;20044;-96
2023/11/30 19:19:53;;;;;;;7.15;4.78;;;;;;;1.06;100.00;99811.19;4836789;29;20400;-96
2023/11/30 19:22:21;;;;;;;11.60;5.35;;;;;;;1.03;100.00;99814.84;4838971;29;20065;-96
2023/11/30 19:24:47;;;;;;;11.57;5.10;;;;;;;1.03;100.00;99819.19;4842783;29;20029;-96
2023/11/30 19:27:13;;;;;;;16.95;8.73;;;;;;;0.98;100.00;99817.75;4857853;29;20085;-96
2023/11/30 19:29:42;;;;;;;17.38;9.30;;;;;;;1.00;100.00;99815.03;4824522;29;20042;-96
2023/11/30 19:32:08;;;;;;;19.45;9.80;;;;;;;1.01;100.00;99811.50;4852449;29;20488;-96
2023/11/30 19:34:59;;;;;;;17.92;10.05;;;;;;;1.06;100.00;99814.63;4842627;29;20094;-96
2023/11/30 19:37:25;;;;;;;15.55;8.25;;;;;;;1.00;100.00;99812.44;4842653;29;20048;-96
2023/11/30 19:39:51;;;;;;;15.77;7.80;;;;;;;1.03;100.00;99812.25;4838567;29;20041;-96
2023/11/30 19:42:17;;;;;;;16.15;9.32;;;;;;;1.02;100.00;99818.34;4827049;29;20096;-96
2023/11/30 19:44:43;;;;;;;13.57;8.75;;;;;;;0.98;100.00;99804.72;4841729;29;20488;-94
2023/11/30 19:47:08;;;;;;;13.80;7.15;;;;;;;1.00;100.00;99809.84;4809110;29;20038;-95
2023/11/30 19:49:34;;;;;;;11.52;6.90;;;;;;;0.98;100.00;99806.47;4825424;29;20030;-95
2023/11/30 19:52:00;;;;;;;11.20;6.35;;;;;;;1.01;100.00;99801.06;4850690;29;20045;-96
2023/11/30 19:54:26;;;;;;;8.07;6.05;;;;;;;1.02;100.00;99807.94;4837115;29;20057;-95
2023/11/30 19:56:51;;;;;;;11.48;6.35;;;;;;;1.01;100.00;99808.03;4840358;29;20492;-96
2023/11/30 19:59:17;;;;;;;10.50;6.18;;;;;;;0.98;100.00;99815.13;4837591;29;20049;-96
2023/11/30 20:01:43;;;;;;;11.07;6.10;;;;;;;0.97;100.00;99810.03;4833207;29;20044;-96
2023/11/30 20:04:11;;;;;;;12.93;6.68;;;;;;;0.99;100.00;99805.53;4855302;29;20041;-96
2023/11/30 20:06:36;;;;;;;13.15;6.10;;;;;;;0.98;100.00;99802.13;4850320;29;20094;-96
2023/11/30 20:09:02;;;;;;;11.20;5.65;;;;;;;0.96;100.00;99797.94;4832092;29;20033;-96
2023/11/30 20:11:28;;;;;;;13.80;5.55;;;;;;;0.95;100.00;99798.88;4855067;29;20100;-96
2023/11/30 20:13:54;;;;;;;18.30;5.97;;;;;;;0.97;100.00;99797.81;4852422;29;20029;-96
2023/11/30 20:16:19;;;;;;;7.78;5.65;;;;;;;0.96;100.00;99803.13;4850232;29;20053;-96
2023/11/30 20:18:45;;;;;;;9.68;6.03;;;;;;;0.92;100.00;99799.91;4824654;29;20097;-96
2023/11/30 20:21:18;;;;;;;7.25;5.10;;;;;;;0.96;100.00;99797.94;4852996;29;20037;-94
2023/11/30 20:23:44;;;;;;;9.23;4.78;;;;;;;0.91;100.00;99802.63;4819008;29;20071;-93
2023/11/30 20:26:10;;;;;;;9.75;4.80;;;;;;;0.92;100.00;99805.13;4842251;29;20045;-93
2023/11/30 20:28:36;;;;;;;7.53;4.40;;;;;;;0.93;100.00;99808.53;4866316;29;20037;-96
2023/11/30 20:31:01;;;;;;;7.47;5.03;;;;;;;0.94;100.00;99807.63;4866543;29;20041;-96
2023/11/30 20:33:27;;;;;;;6.22;4.68;;;;;;;0.95;100.00;99807.53;4816631;29;20042;-96
2023/11/30 20:35:53;;;;;;;5.40;4.07;;;;;;;0.94;100.00;99803.22;4857470;29;20108;-95
2023/11/30 20:38:18;;;;;;;7.32;4.85;;;;;;;0.91;100.00;99803.44;4823931;29;20405;-96
2023/11/30 20:40:45;;;;;;;10.93;5.00;;;;;;;0.88;100.00;99800.22;4854762;29;20176;-96
2023/11/30 20:43:10;;;;;;;11.63;4.82;;;;;;;0.86;100.00;99802.91;4849217;29;20073;-95
2023/11/30 20:45:37;;;;;;;8.75;5.57;;;;;;;0.88;100.00;99816.63;4862380;29;20132;-95
2023/11/30 20:48:03;;;;;;;10.23;5.70;;;;;;;0.85;100.00;99820.28;4848993;29;20082;-96
2023/11/30 20:50:28;;;;;;;16.75;6.25;;;;;;;0.88;100.00;99821.03;4837957;29;20061;-96
2023/11/30 20:52:54;;;;;;;11.68;6.43;;;;;;;0.90;100.00;99824.34;4834692;29;20075;-96
2023/11/30 20:55:21;;;;;;;12.73;6.15;;;;;;;0.89;100.00;99826.13;4856186;29;20057;-96
2023/11/30 20:57:47;;;;;;;12.88;7.38;;;;;;;0.89;100.00;99817.47;4819686;29;20405;-96
2023/11/30 21:00:13;;;;;;;17.63;7.63;;;;;;;0.94;100.00;99821.44;4825136;29;20041;-96
2023/11/30 21:02:39;;;;;;;12.93;7.82;;;;;;;0.98;100.00;99828.16;4825674;29;20400;-95
2023/11/30 21:05:05;;;;;;;14.77;8.73;;;;;;;0.97;100.00;99816.03;4824552;29;20041;-96
2023/11/30 21:07:31;;;;;;;15.35;8.40;;;;;;;0.99;100.00;99813.34;4837329;29;20053;-96
2023/11/30 21:09:57;;;;;;;13.82;7.90;;;;;;;1.03;100.00;99819.19;4853736;29;20042;-96
2023/11/30 21:12:23;;;;;;;11.57;8.40;;;;;;;1.02;100.00;99812.34;4844797;29;20038;-96
2023/11/30 21:14:49;;;;;;;13.65;7.57;;;;;;;0.95;100.00;99820.53;4851229;29;20049;-95
2023/11/30 21:17:15;;;;;;;13.10;7.78;;;;;;;0.95;100.00;99824.91;4856843;29;20038;-96
2023/11/30 21:19:40;;;;;;;16.35;7.45;;;;;;;0.92;100.00;99822.50;4869517;29;20037;-96
2023/11/30 21:22:06;;;;;;;10.57;7.13;;;;;;;0.89;100.00;99827.88;4853627;29;20037;-96
2023/11/30 21:24:33;;;;;;;12.77;7.93;;;;;;;0.88;100.00;99831.44;4842682;29;20049;-96
2023/11/30 21:26:59;;;;;;;15.70;8.43;;;;;;;0.87;100.00;99830.59;4825894;29;20061;-96
2023/11/30 21:29:26;;;;;;;13.73;7.80;;;;;;;0.80;100.00;99816.28;4846535;29;20044;-96
2023/11/30 21:32:13;;;;;;;;;;;;;;;;;;;;;
2023/11/30 21:35:10;;;;;;;16.70;8.70;;;;;;;0.77;100.00;99821.69;4853761;29;20046;-96
2023/11/30 21:38:02;;;;;;;20.55;9.88;;;;;;;0.64;100.00;99825.03;4869484;29;20049;-96
2023/11/30 21:40:30;;;;;;;13.93;9.05;;;;;;;0.58;100.00;99825.44;4856177;29;20037;-96
2023/11/30 21:43:10;;;;;;;16.67;9.68;;;;;;;0.53;100.00;99823.13;4853214;29;20046;-96
2023/11/30 21:46:03;;;;;;;18.85;10.95;;;;;;;0.57;100.00;99832.41;4871644;29;20062;-96
2023/11/30 21:48:51;;;;;;;;;;;;;;;;;;;;;
2023/11/30 21:52:00;;;;;;;21.75;10.70;;;;;;;0.60;100.00;99833.97;4870922;29;20041;-96
2023/11/30 21:54:37;;;;;;;17.98;9.43;;;;;;;0.48;100.00;99822.56;4828239;29;20058;-96
2023/11/30 21:57:40;;;;;;;17.85;7.43;;;;;;;0.55;100.00;99831.66;4844520;29;20046;-96
2023/11/30 22:00:16;;;;;;;12.00;6.47;;;;;;;0.56;100.00;99843.72;4849237;29;20040;-96
2023/11/30 22:03:07;;;;;;;9.82;5.80;;;;;;;0.55;100.00;99830.81;4867419;29;20043;-96
2023/11/30 22:06:35;;;;;;;13.95;7.25;;;;;;;0.52;100.00;99839.66;4869003;29;20049;-96
2023/11/30 22:09:24;;;;;;;12.55;6.13;;;;;;;0.47;100.00;99836.50;4861653;29;20037;-96
2023/11/30 22:11:50;;;;;;;10.82;6.13;;;;;;;0.37;100.00;99828.41;4844242;29;20034;-96
2023/11/30 22:14:16;;;;;;;21.48;9.98;;;;;;;0.13;100.00;99826.38;4852112;29;20069;-96
2023/11/30 22:16:49;;;;;;;9.73;6.32;;;;;;;0.02;100.00;99842.63;4843942;29;20405;-96
2023/11/30 22:19:15;;;;;;;13.90;6.45;;;;;;;-0.10;100.00;99836.41;4827518;29;20038;-96
2023/11/30 22:22:00;;;;;;;11.98;6.88;;;;;;;-0.08;100.00;99836.31;4860306;29;20033;-96
2023/11/30 22:24:35;;;;;;;11.75;7.28;;;;;;;-0.04;100.00;99825.63;4860145;29;20133;-96
2023/11/30 22:27:21;;;;;;;9.27;5.65;;;;;;;-0.01;100.00;99828.06;4856307;29;20029;-96
2023/11/30 22:29:55;;;;;;;11.55;7.32;;;;;;;-0.01;100.00;99840.19;4850350;29;20065;-96
2023/11/30 22:32:36;;;;;;;14.50;7.57;;;;;;;0.04;100.00;99834.72;4854695;29;20098;-96
2023/11/30 22:35:43;;;;;;;15.18;9.45;;;;;;;0.08;100.00;99841.44;4856346;29;20057;-96
2023/11/30 22:39:03;;;;;;;22.02;11.02;;;;;;;-0.02;100.00;99841.13;4848954;29;20113;-96
2023/11/30 22:46:15;;;;;;;;;;;;;;;;;;;;;
2023/11/30 22:49:44;;;;;;;19.25;9.93;;;;;;;-0.08;100.00;99850.09;4830891;29;20721;-96
2023/11/30 22:52:52;;;;;;;;;;;;;;;;;;;;;
2023/11/30 22:56:14;;;;;;;;;;;;;;;;;;;;;
2023/11/30 22:59:13;;;;;;;;;;;;;;;-0.10;100.00;99851.97;4876194;29;20041;-96
2023/11/30 23:01:49;;;;;;;14.50;8.85;;;;;;;-0.23;100.00;99853.59;4839126;29;19916;-96
2023/11/30 23:04:15;;;;;;;11.27;7.80;;;;;;;-0.22;100.00;99855.31;4829729;29;20052;-96
2023/11/30 23:06:41;;;;;;;15.82;9.50;;;;;;;-0.26;100.00;99849.44;4845276;29;20045;-96
2023/11/30 23:13:22;;;;;;;16.65;10.73;;;;;;;-0.18;100.00;99844.63;4830840;29;20046;-96
2023/11/30 23:16:36;;;;;;;20.00;10.90;;;;;;;-0.21;100.00;99851.75;4859128;29;20531;-96
2023/11/30 23:19:10;;;;;;;15.43;9.02;;;;;;;-0.30;100.00;99842.72;4843858;29;20170;-96
2023/11/30 23:21:36;;;;;;;17.40;9.15;;;;;;;-0.24;100.00;99857.13;4840618;29;20124;-96
2023/11/30 23:24:05;;;;;;;15.57;8.43;;;;;;;-0.22;100.00;99850.09;4828615;29;20045;-96
2023/11/30 23:26:32;;;;;;;13.98;9.45;;;;;;;-0.19;100.00;99849.94;4842140;29;20122;-96
2023/11/30 23:28:58;;;;;;;16.02;9.98;;;;;;;-0.18;100.00;99849.00;4831414;29;20033;-96
2023/11/30 23:31:24;;;;;;;17.25;11.38;;;;;;;-0.22;100.00;99853.50;4833940;29;20050;-93
2023/11/30 23:33:56;;;;;;;21.45;9.38;;;;;;;-0.13;100.00;99857.34;4846429;29;20048;-96
2023/11/30 23:36:25;;;;;;;15.45;10.10;;;;;;;-0.21;100.00;99854.38;4843917;29;20132;-96
2023/11/30 23:39:06;;;;;;;;;;;;;;;;;;;;;
2023/11/30 23:41:53;;;;;;;;;;;;;;;;;;;;;
2023/11/30 23:44:20;;;;;;;23.10;12.23;;;;;;;-0.21;100.00;99857.81;4845872;29;20124;-96
2023/11/30 23:47:01;;;;;;;;;;;;;;;;;;;;;
2023/11/30 23:49:55;;;;;;;29.73;20.48;;;;;;;-0.21;100.00;99855.22;4847355;29;20508;-96
2023/11/30 23:52:24;;;;;;;25.73;15.13;;;;;;;-0.13;100.00;99865.16;4854726;29;20053;-96
2023/11/30 23:55:02;;;;;;;17.45;10.45;;;;;;;-0.07;100.00;99861.34;4851507;29;20065;-96
2023/11/30 23:57:31;;;;;;;17.77;11.68;;;;;;;-0.05;100.00;99864.69;4832190;29;20049;-96
